Time,TemperatureF,DewpointF,PressureIn,WindDirection,WindDirectionDegrees,WindSpeedMPH,WindSpeedGustMPH,Humidity,HourlyPrecipIn,Conditions,Clouds,dailyrainin,SolarRadiationWatts/m^2,SoftwareType,DateUTC
2013-03-10 00:02:00,57.4,55.0,29.96,SSE,167,2.0,8.0,92,0.02,,,0.15,0.0,meteohub,2013-03-10 10:02:00,
2013-03-10 00:07:00,57.9,55.0,29.96,South,190,2.0,8.0,90,0.02,,,0.15,0.0,meteohub,2013-03-10 10:07:00,
2013-03-10 00:12:00,58.3,55.0,29.95,SSE,160,8.0,16.0,89,0.02,,,0.15,0.0,meteohub,2013-03-10 10:12:00,
2013-03-10 00:17:00,58.6,54.9,29.95,SSE,149,3.0,16.0,87,0.01,,,0.15,0.0,meteohub,2013-03-10 10:17:00,
2013-03-10 00:22:00,59.2,55.0,29.95,East,96,5.0,16.0,86,0.01,,,0.15,0.0,meteohub,2013-03-10 10:22:00,
2013-03-10 00:28:00,59.7,54.5,29.95,SSE,148,11.0,19.0,83,0.00,,,0.15,0.0,meteohub,2013-03-10 10:28:00,
2013-03-10 00:33:00,60.1,54.5,29.95,ESE,120,5.0,21.0,82,0.00,,,0.15,0.0,meteohub,2013-03-10 10:33:00,
2013-03-10 00:38:00,60.3,54.7,29.96,ESE,112,9.0,21.0,82,0.00,,,0.15,0.0,meteohub,2013-03-10 10:38:00,
2013-03-10 00:43:00,60.4,54.5,29.97,East,97,3.0,21.0,81,0.00,,,0.15,0.0,meteohub,2013-03-10 10:43:00,
2013-03-10 00:48:00,60.4,54.5,29.97,South,177,2.0,17.0,81,0.00,,,0.15,0.0,meteohub,2013-03-10 10:48:00,
2013-03-10 00:53:00,60.3,55.0,29.97,South,176,0.0,15.0,83,0.00,,,0.15,0.0,meteohub,2013-03-10 10:53:00,
2013-03-10 00:58:00,59.9,54.7,29.97,ESE,112,0.0,10.0,83,0.00,,,0.15,0.0,meteohub,2013-03-10 10:58:00,
2013-03-10 01:03:00,59.7,54.9,29.96,ENE,73,0.0,3.0,84,0.00,,,0.15,0.0,meteohub,2013-03-10 11:03:00,
2013-03-10 01:08:00,59.5,55.0,29.96,North,0,2.0,3.0,85,0.00,,,0.15,0.0,meteohub,2013-03-10 11:08:00,
2013-03-10 01:13:00,58.8,55.2,29.96,ENE,78,1.0,3.0,88,0.01,,,0.16,0.0,meteohub,2013-03-10 11:13:00,
2013-03-10 01:18:00,58.3,55.0,29.96,ESE,111,0.0,3.0,89,0.01,,,0.16,0.0,meteohub,2013-03-10 11:18:00,
2013-03-10 01:23:00,57.7,54.9,29.96,ESE,103,3.0,3.0,90,0.02,,,0.17,0.0,meteohub,2013-03-10 11:23:00,
2013-03-10 01:28:00,57.4,54.1,29.96,East,92,0.0,3.0,89,0.02,,,0.17,0.0,meteohub,2013-03-10 11:28:00,
2013-03-10 01:33:00,57.4,54.1,29.96,ENE,71,0.0,4.0,89,0.02,,,0.17,0.0,meteohub,2013-03-10 11:33:00,
2013-03-10 01:38:00,57.6,54.0,29.96,South,171,0.0,5.0,88,0.02,,,0.17,0.0,meteohub,2013-03-10 11:38:00,
2013-03-10 01:43:00,57.9,54.1,29.96,South,185,0.0,5.0,87,0.02,,,0.17,0.0,meteohub,2013-03-10 11:43:00,
2013-03-10 01:48:00,58.1,54.5,29.96,South,190,1.0,7.0,88,0.02,,,0.17,0.0,meteohub,2013-03-10 11:48:00,
2013-03-10 01:53:00,57.9,54.7,29.96,South,188,0.0,7.0,89,0.02,,,0.17,0.0,meteohub,2013-03-10 11:53:00,
2013-03-10 01:58:00,57.4,54.9,29.96,SE,138,2.0,7.0,91,0.02,,,0.17,0.0,meteohub,2013-03-10 11:58:00,
2013-03-10 02:03:00,57.0,55.0,29.96,ESE,123,0.0,5.0,93,0.03,,,0.18,0.0,meteohub,2013-03-10 12:03:00,
2013-03-10 02:08:00,56.7,55.0,29.96,SSE,154,1.0,5.0,94,0.03,,,0.18,0.0,meteohub,2013-03-10 12:08:00,
2013-03-10 02:13:00,56.7,54.7,29.96,South,190,3.0,5.0,93,0.02,,,0.18,0.0,meteohub,2013-03-10 12:13:00,
2013-03-10 02:18:00,57.0,55.0,29.96,SSE,163,0.0,7.0,93,0.01,,,0.18,0.0,meteohub,2013-03-10 12:18:00,
2013-03-10 02:23:00,57.0,55.0,29.96,SSW,209,1.0,7.0,93,0.01,,,0.18,0.0,meteohub,2013-03-10 12:23:00,
2013-03-10 02:28:00,57.0,55.6,29.96,SW,223,2.0,7.0,95,0.02,,,0.19,0.0,meteohub,2013-03-10 12:28:00,
2013-03-10 02:33:00,56.8,55.4,29.96,WSW,238,4.0,8.0,95,0.02,,,0.19,0.0,meteohub,2013-03-10 12:33:00,
2013-03-10 02:38:00,56.7,55.2,29.96,SW,236,1.0,9.0,95,0.02,,,0.19,0.0,meteohub,2013-03-10 12:38:00,
2013-03-10 02:43:00,56.5,55.0,29.95,SSW,211,1.0,9.0,95,0.02,,,0.19,0.0,meteohub,2013-03-10 12:43:00,
2013-03-10 02:48:00,56.3,54.9,29.95,SW,225,3.0,9.0,95,0.03,,,0.20,0.0,meteohub,2013-03-10 12:48:00,
2013-03-10 02:53:00,55.9,54.9,29.95,WSW,242,1.0,8.0,96,0.03,,,0.20,0.0,meteohub,2013-03-10 12:53:00,
2013-03-10 02:58:00,55.8,54.7,29.95,WSW,239,2.0,7.0,96,0.02,,,0.20,0.0,meteohub,2013-03-10 12:58:00,
2013-03-10 03:03:00,55.8,54.7,29.95,SSW,205,2.0,7.0,96,0.02,,,0.20,0.0,meteohub,2013-03-10 13:03:00,
2013-03-10 03:08:00,55.6,54.7,29.95,WSW,256,2.0,7.0,97,0.02,,,0.20,0.0,meteohub,2013-03-10 13:08:00,
2013-03-10 03:13:00,55.6,54.7,29.94,SW,223,0.0,8.0,97,0.02,,,0.20,0.0,meteohub,2013-03-10 13:13:00,
2013-03-10 03:18:00,55.6,54.7,29.94,SW,221,2.0,8.0,97,0.02,,,0.20,0.0,meteohub,2013-03-10 13:18:00,
2013-03-10 03:23:00,55.4,54.5,29.94,SW,230,4.0,8.0,97,0.02,,,0.20,0.0,meteohub,2013-03-10 13:23:00,
2013-03-10 03:29:00,55.4,54.5,29.94,SW,229,1.0,6.0,97,0.01,,,0.20,0.0,meteohub,2013-03-10 13:29:00,
2013-03-10 03:34:00,55.2,54.3,29.94,ESE,120,4.0,7.0,97,0.01,,,0.20,0.0,meteohub,2013-03-10 13:34:00,
2013-03-10 03:39:00,55.4,54.9,29.94,WSW,242,1.0,7.0,98,0.01,,,0.20,0.0,meteohub,2013-03-10 13:39:00,
2013-03-10 03:44:00,55.4,54.9,29.94,SW,233,4.0,6.0,98,0.01,,,0.21,0.0,meteohub,2013-03-10 13:44:00,
2013-03-10 03:49:00,55.4,54.9,29.93,WSW,238,2.0,8.0,98,0.01,,,0.21,0.0,meteohub,2013-03-10 13:49:00,
2013-03-10 03:54:00,55.2,54.7,29.93,WSW,239,0.0,8.0,98,0.01,,,0.21,0.0,meteohub,2013-03-10 13:54:00,
2013-03-10 03:59:00,55.2,54.7,29.93,WSW,240,0.0,8.0,98,0.01,,,0.21,0.0,meteohub,2013-03-10 13:59:00,
2013-03-10 04:04:00,55.0,54.1,29.93,East,81,1.0,5.0,97,0.01,,,0.21,0.0,meteohub,2013-03-10 14:04:00,
2013-03-10 04:09:00,54.9,54.0,29.93,SSE,165,3.0,3.0,97,0.01,,,0.21,0.0,meteohub,2013-03-10 14:09:00,
2013-03-10 04:14:00,54.9,54.0,29.93,SE,142,2.0,5.0,97,0.01,,,0.21,0.0,meteohub,2013-03-10 14:14:00,
2013-03-10 04:19:00,55.2,53.8,29.93,SSE,150,0.0,5.0,95,0.01,,,0.21,0.0,meteohub,2013-03-10 14:19:00,
2013-03-10 04:24:00,55.4,54.0,29.93,SSE,150,1.0,6.0,95,0.01,,,0.21,0.0,meteohub,2013-03-10 14:24:00,
2013-03-10 04:29:00,55.6,54.0,29.93,SSW,192,1.0,6.0,94,0.01,,,0.21,0.0,meteohub,2013-03-10 14:29:00,
2013-03-10 04:34:00,55.6,54.0,29.93,South,183,1.0,6.0,94,0.02,,,0.22,0.0,meteohub,2013-03-10 14:34:00,
2013-03-10 04:39:00,55.6,54.0,29.93,South,183,0.0,5.0,94,0.01,,,0.22,0.0,meteohub,2013-03-10 14:39:00,
2013-03-10 04:44:00,55.6,54.0,29.93,South,183,0.0,5.0,94,0.01,,,0.22,0.0,meteohub,2013-03-10 14:44:00,
2013-03-10 04:49:00,55.4,54.0,29.93,South,182,1.0,3.0,95,0.01,,,0.22,0.0,meteohub,2013-03-10 14:49:00,
2013-03-10 04:54:00,55.2,53.8,29.94,SSE,153,0.0,1.0,95,0.01,,,0.22,0.0,meteohub,2013-03-10 14:54:00,
2013-03-10 04:59:00,55.0,54.0,29.94,SSE,153,0.0,2.0,96,0.01,,,0.22,0.0,meteohub,2013-03-10 14:59:00,
2013-03-10 05:04:00,54.9,53.8,29.94,SSE,148,0.0,2.0,96,0.01,,,0.22,0.0,meteohub,2013-03-10 15:04:00,
2013-03-10 05:09:00,55.0,54.0,29.94,SE,141,1.0,2.0,96,0.01,,,0.22,0.0,meteohub,2013-03-10 15:09:00,
2013-03-10 05:14:00,55.4,54.3,29.95,SSE,153,2.0,6.0,96,0.01,,,0.22,0.0,meteohub,2013-03-10 15:14:00,
2013-03-10 05:19:00,55.8,54.1,29.95,East,88,1.0,6.0,94,0.01,,,0.22,0.0,meteohub,2013-03-10 15:19:00,
2013-03-10 05:24:00,55.9,54.0,29.96,SSE,148,6.0,8.0,93,0.01,,,0.22,0.0,meteohub,2013-03-10 15:24:00,
2013-03-10 05:29:00,56.3,54.0,29.96,SSE,165,1.0,8.0,92,0.01,,,0.22,0.0,meteohub,2013-03-10 15:29:00,
2013-03-10 05:34:00,56.3,54.0,29.96,SSE,165,3.0,8.0,92,0.00,,,0.22,0.0,meteohub,2013-03-10 15:34:00,
2013-03-10 05:39:00,56.1,54.1,29.96,ESE,104,4.0,7.0,93,0.00,,,0.22,0.0,meteohub,2013-03-10 15:39:00,
2013-03-10 05:44:00,56.1,54.1,29.96,SSE,150,4.0,7.0,93,0.01,,,0.23,0.0,meteohub,2013-03-10 15:44:00,
2013-03-10 05:49:00,56.1,53.8,29.96,ESE,123,3.0,9.0,92,0.01,,,0.23,0.0,meteohub,2013-03-10 15:49:00,
2013-03-10 05:54:00,56.3,54.0,29.96,SSE,155,6.0,9.0,92,0.01,,,0.23,0.0,meteohub,2013-03-10 15:54:00,
2013-03-10 05:59:00,56.5,54.1,29.97,ESE,119,2.0,9.0,92,0.01,,,0.23,0.0,meteohub,2013-03-10 15:59:00,
2013-03-10 06:04:00,56.5,54.0,29.97,ESE,122,5.0,7.0,91,0.01,,,0.23,0.0,meteohub,2013-03-10 16:04:00,
2013-03-10 06:09:00,56.7,53.4,29.97,ESE,114,7.0,8.0,89,0.01,,,0.23,0.0,meteohub,2013-03-10 16:09:00,
2013-03-10 06:14:00,56.8,53.2,29.97,ESE,119,7.0,11.0,88,0.01,,,0.23,0.0,meteohub,2013-03-10 16:14:00,
2013-03-10 06:19:00,56.8,53.2,29.97,SE,131,5.0,13.0,88,0.01,,,0.23,0.0,meteohub,2013-03-10 16:19:00,
2013-03-10 06:24:00,56.8,53.2,29.97,SE,128,4.0,14.0,88,0.01,,,0.23,0.0,meteohub,2013-03-10 16:24:00,
2013-03-10 06:30:00,57.0,53.8,29.97,SE,134,6.0,14.0,89,0.01,,,0.23,0.0,meteohub,2013-03-10 16:30:00,
2013-03-10 06:35:00,57.4,53.8,29.98,East,100,3.0,13.0,88,0.01,,,0.23,0.0,meteohub,2013-03-10 16:35:00,
2013-03-10 06:40:00,57.6,54.3,29.97,SE,128,6.0,12.0,89,0.01,,,0.23,0.0,meteohub,2013-03-10 16:40:00,
2013-03-10 06:45:00,57.4,54.1,29.97,SE,145,5.0,12.0,89,0.00,,,0.23,0.0,meteohub,2013-03-10 16:45:00,
2013-03-10 06:50:00,57.6,54.0,29.97,SE,140,7.0,12.0,88,0.00,,,0.23,7.0,meteohub,2013-03-10 16:50:00,
2013-03-10 06:55:00,57.7,54.0,29.97,SE,146,3.0,12.0,87,0.00,,,0.23,16.0,meteohub,2013-03-10 16:55:00,
2013-03-10 07:00:00,57.7,53.2,29.97,SE,134,9.0,12.0,85,0.00,,,0.23,19.0,meteohub,2013-03-10 17:00:00,
2013-03-10 07:05:00,57.7,53.2,29.97,ESE,120,4.0,12.0,85,0.00,,,0.23,25.0,meteohub,2013-03-10 17:05:00,
2013-03-10 07:10:00,57.7,53.2,29.97,SE,136,3.0,12.0,85,0.00,,,0.23,26.0,meteohub,2013-03-10 17:10:00,
2013-03-10 07:15:00,57.9,53.4,29.97,SE,141,5.0,10.0,85,0.00,,,0.23,28.0,meteohub,2013-03-10 17:15:00,
2013-03-10 07:20:00,58.1,53.6,29.97,South,182,1.0,10.0,85,0.00,,,0.23,39.0,meteohub,2013-03-10 17:20:00,
2013-03-10 07:25:00,58.1,54.5,29.98,SW,229,1.0,10.0,88,0.00,,,0.23,86.0,meteohub,2013-03-10 17:25:00,
2013-03-10 07:30:00,57.7,55.2,29.98,SW,236,0.0,10.0,91,0.00,,,0.23,91.0,meteohub,2013-03-10 17:30:00,
2013-03-10 07:35:00,57.6,55.2,29.98,South,170,0.0,10.0,92,0.00,,,0.23,100.0,meteohub,2013-03-10 17:35:00,
2013-03-10 07:40:00,57.4,55.0,29.99,South,180,3.0,10.0,92,0.00,,,0.23,88.0,meteohub,2013-03-10 17:40:00,
2013-03-10 07:45:00,57.6,55.2,29.99,SSW,207,3.0,6.0,92,0.00,,,0.23,91.0,meteohub,2013-03-10 17:45:00,
2013-03-10 07:50:00,57.9,54.7,29.99,SW,223,2.0,8.0,89,0.00,,,0.23,67.0,meteohub,2013-03-10 17:50:00,
2013-03-10 07:55:00,58.1,54.0,29.99,SSE,147,7.0,8.0,86,0.00,,,0.23,90.0,meteohub,2013-03-10 17:55:00,
2013-03-10 08:00:00,58.6,53.8,29.99,SE,134,6.0,10.0,84,0.00,,,0.23,54.0,meteohub,2013-03-10 18:00:00,
2013-03-10 08:05:00,58.6,53.4,29.99,South,183,5.0,11.0,83,0.00,,,0.23,116.0,meteohub,2013-03-10 18:05:00,
2013-03-10 08:10:00,59.4,53.8,29.99,SSE,159,4.0,12.0,82,0.00,,,0.23,149.0,meteohub,2013-03-10 18:10:00,
2013-03-10 08:15:00,59.7,54.5,29.99,ENE,67,5.0,12.0,83,0.00,,,0.23,323.0,meteohub,2013-03-10 18:15:00,
2013-03-10 08:20:00,59.9,54.3,30.00,ESE,115,8.0,15.0,82,0.00,,,0.23,132.0,meteohub,2013-03-10 18:20:00,
2013-03-10 08:25:00,59.5,54.3,29.99,SW,223,0.0,15.0,83,0.00,,,0.23,269.0,meteohub,2013-03-10 18:25:00,
2013-03-10 08:30:00,59.7,55.2,30.00,South,182,0.0,15.0,85,0.00,,,0.23,330.0,meteohub,2013-03-10 18:30:00,
2013-03-10 08:35:00,60.1,55.2,30.00,South,186,1.0,9.0,84,0.00,,,0.23,316.0,meteohub,2013-03-10 18:35:00,
2013-03-10 08:40:00,60.1,55.6,30.01,SE,126,3.0,7.0,85,0.00,,,0.23,309.0,meteohub,2013-03-10 18:40:00,
2013-03-10 08:45:00,59.4,55.4,30.01,SW,219,7.0,9.0,87,0.00,,,0.23,302.0,meteohub,2013-03-10 18:45:00,
2013-03-10 08:50:00,58.6,55.0,30.01,WSW,255,3.0,9.0,88,0.00,,,0.23,348.0,meteohub,2013-03-10 18:50:00,
2013-03-10 08:55:00,58.5,55.2,30.01,SSE,159,6.0,11.0,89,0.00,,,0.23,265.0,meteohub,2013-03-10 18:55:00,
2013-03-10 09:00:00,58.3,54.7,30.02,SE,125,7.0,11.0,88,0.01,,,0.24,223.0,meteohub,2013-03-10 19:00:00,
2013-03-10 09:05:00,58.3,54.7,30.01,East,96,3.0,19.0,88,0.01,,,0.24,221.0,meteohub,2013-03-10 19:05:00,
2013-03-10 09:10:00,58.5,54.7,30.01,ESE,114,14.0,19.0,87,0.01,,,0.24,202.0,meteohub,2013-03-10 19:10:00,
2013-03-10 09:16:00,58.8,55.0,30.01,ESE,119,8.0,19.0,87,0.01,,,0.24,195.0,meteohub,2013-03-10 19:16:00,
2013-03-10 09:21:00,59.4,54.9,30.01,SE,136,6.0,14.0,85,0.01,,,0.24,185.0,meteohub,2013-03-10 19:21:00,
2013-03-10 09:26:00,59.9,54.7,30.01,SSE,161,3.0,14.0,83,0.01,,,0.24,629.0,meteohub,2013-03-10 19:26:00,
2013-03-10 09:31:00,60.8,54.3,30.00,ESE,112,5.0,11.0,79,0.01,,,0.24,619.0,meteohub,2013-03-10 19:31:00,
2013-03-10 09:36:00,61.5,54.7,30.01,SE,146,5.0,16.0,78,0.01,,,0.24,661.0,meteohub,2013-03-10 19:36:00,
2013-03-10 09:41:00,61.9,54.7,30.01,SSE,159,6.0,16.0,77,0.01,,,0.24,295.0,meteohub,2013-03-10 19:41:00,
2013-03-10 09:47:00,61.9,55.6,30.01,SSE,164,6.0,16.0,80,0.01,,,0.24,258.0,meteohub,2013-03-10 19:47:00,
2013-03-10 09:52:00,61.5,55.6,30.00,South,170,3.0,15.0,81,0.01,,,0.24,624.0,meteohub,2013-03-10 19:52:00,
2013-03-10 09:57:00,61.9,56.3,30.00,SSW,201,3.0,11.0,82,0.01,,,0.24,902.0,meteohub,2013-03-10 19:57:00,
2013-03-10 10:02:00,62.4,57.2,30.00,SSW,213,7.0,11.0,83,0.00,,,0.24,782.0,meteohub,2013-03-10 20:02:00,
2013-03-10 10:07:00,62.4,56.5,30.00,SSE,156,4.0,9.0,81,0.00,,,0.24,538.0,meteohub,2013-03-10 20:07:00,
2013-03-10 10:12:00,62.2,57.4,30.01,South,169,12.0,12.0,84,0.00,,,0.24,427.0,meteohub,2013-03-10 20:12:00,
2013-03-10 10:17:00,61.7,56.5,30.00,SE,141,8.0,12.0,83,0.00,,,0.24,376.0,meteohub,2013-03-10 20:17:00,
2013-03-10 10:22:00,61.3,56.8,30.01,SSE,163,7.0,12.0,85,0.00,,,0.24,452.0,meteohub,2013-03-10 20:22:00,
2013-03-10 10:27:00,61.3,56.5,30.00,SE,146,5.0,12.0,84,0.00,,,0.24,353.0,meteohub,2013-03-10 20:27:00,
2013-03-10 10:32:00,61.7,56.5,30.01,SSE,162,4.0,11.0,83,0.00,,,0.24,682.0,meteohub,2013-03-10 20:32:00,
2013-03-10 10:37:00,61.5,57.0,30.00,SE,130,7.0,18.0,85,0.00,,,0.24,802.0,meteohub,2013-03-10 20:37:00,
2013-03-10 10:42:00,61.7,56.1,30.00,South,171,8.0,19.0,82,0.00,,,0.24,796.0,meteohub,2013-03-10 20:42:00,
2013-03-10 10:47:00,61.9,56.3,29.99,East,82,2.0,19.0,82,0.00,,,0.24,909.0,meteohub,2013-03-10 20:47:00,
2013-03-10 10:52:00,62.6,57.0,30.00,SSE,155,16.0,19.0,82,0.00,,,0.24,786.0,meteohub,2013-03-10 20:52:00,
2013-03-10 10:57:00,63.1,56.1,30.00,SSW,198,4.0,18.0,78,0.00,,,0.24,846.0,meteohub,2013-03-10 20:57:00,
2013-03-10 11:02:00,63.5,57.9,30.00,SSW,200,5.0,18.0,82,0.00,,,0.24,949.0,meteohub,2013-03-10 21:02:00,
2013-03-10 11:07:00,63.0,56.3,30.00,SSW,212,7.0,18.0,79,0.00,,,0.24,236.0,meteohub,2013-03-10 21:07:00,
2013-03-10 11:12:00,63.0,57.0,30.00,WSW,242,3.0,12.0,81,0.00,,,0.24,895.0,meteohub,2013-03-10 21:12:00,
2013-03-10 11:17:00,63.0,55.9,30.00,SSE,156,14.0,14.0,78,0.00,,,0.24,940.0,meteohub,2013-03-10 21:17:00,
2013-03-10 11:22:00,63.0,57.0,30.00,SSE,148,3.0,16.0,81,0.00,,,0.24,958.0,meteohub,2013-03-10 21:22:00,
2013-03-10 11:27:00,63.5,56.1,29.99,SSE,163,3.0,16.0,77,0.00,,,0.24,939.0,meteohub,2013-03-10 21:27:00,
2013-03-10 11:32:00,64.0,56.3,29.99,SSE,160,3.0,19.0,76,0.00,,,0.24,1018.0,meteohub,2013-03-10 21:32:00,
2013-03-10 11:37:00,65.1,56.7,29.99,SE,140,6.0,19.0,74,0.00,,,0.24,359.0,meteohub,2013-03-10 21:37:00,
2013-03-10 11:42:00,64.8,55.9,29.99,SW,214,10.0,14.0,73,0.00,,,0.24,1018.0,meteohub,2013-03-10 21:42:00,
2013-03-10 11:47:00,65.1,55.9,29.99,SW,225,14.0,14.0,72,0.00,,,0.24,1035.0,meteohub,2013-03-10 21:47:00,
2013-03-10 11:52:00,64.9,55.4,29.99,SSE,155,3.0,17.0,71,0.00,,,0.24,1009.0,meteohub,2013-03-10 21:52:00,
2013-03-10 11:57:00,65.3,54.9,29.98,SE,144,5.0,17.0,69,0.00,,,0.24,1039.0,meteohub,2013-03-10 21:57:00,
2013-03-10 12:02:00,64.9,56.8,29.98,SSE,150,9.0,17.0,75,0.00,,,0.24,991.0,meteohub,2013-03-10 22:02:00,
2013-03-10 12:08:00,64.8,57.0,29.98,South,179,7.0,17.0,76,0.00,,,0.24,988.0,meteohub,2013-03-10 22:08:00,
2013-03-10 12:13:00,64.8,56.7,29.98,SE,140,8.0,17.0,75,0.00,,,0.24,1005.0,meteohub,2013-03-10 22:13:00,
2013-03-10 12:18:00,64.8,55.6,29.98,ESE,113,8.0,18.0,72,0.00,,,0.24,378.0,meteohub,2013-03-10 22:18:00,
2013-03-10 12:23:00,64.9,54.9,29.97,SSE,159,6.0,18.0,70,0.00,,,0.24,998.0,meteohub,2013-03-10 22:23:00,
2013-03-10 12:28:00,65.8,54.5,29.98,ESE,119,10.0,16.0,67,0.00,,,0.24,1092.0,meteohub,2013-03-10 22:28:00,
2013-03-10 12:33:00,65.1,54.7,29.98,South,186,1.0,16.0,69,0.00,,,0.24,431.0,meteohub,2013-03-10 22:33:00,
2013-03-10 12:38:00,65.8,55.8,29.97,SSW,210,4.0,14.0,70,0.00,,,0.24,1046.0,meteohub,2013-03-10 22:38:00,
2013-03-10 12:43:00,66.7,55.4,29.97,SSW,202,3.0,14.0,67,0.00,,,0.24,1208.0,meteohub,2013-03-10 22:43:00,
2013-03-10 12:48:00,66.9,54.9,29.97,SSW,200,8.0,9.0,65,0.00,,,0.24,1162.0,meteohub,2013-03-10 22:48:00,
2013-03-10 12:53:00,67.1,58.1,29.97,SSE,168,3.0,12.0,73,0.00,,,0.24,1157.0,meteohub,2013-03-10 22:53:00,
2013-03-10 12:58:00,66.9,55.2,29.97,SSE,150,8.0,12.0,66,0.00,,,0.24,1178.0,meteohub,2013-03-10 22:58:00,
2013-03-10 13:03:00,65.7,55.9,29.98,ESE,117,14.0,21.0,71,0.00,,,0.24,403.0,meteohub,2013-03-10 23:03:00,
2013-03-10 13:08:00,64.9,54.9,29.97,SSE,167,6.0,21.0,70,0.00,,,0.24,373.0,meteohub,2013-03-10 23:08:00,
2013-03-10 13:13:00,65.1,55.4,29.97,SSE,161,8.0,21.0,71,0.00,,,0.24,1194.0,meteohub,2013-03-10 23:13:00,
2013-03-10 13:18:00,64.8,54.3,29.96,SSE,159,6.0,15.0,69,0.00,,,0.24,1056.0,meteohub,2013-03-10 23:18:00,
2013-03-10 13:23:00,64.9,54.9,29.97,SSE,163,3.0,15.0,70,0.00,,,0.24,334.0,meteohub,2013-03-10 23:23:00,
2013-03-10 13:28:00,64.4,57.0,29.97,ESE,105,1.0,15.0,77,0.00,,,0.24,369.0,meteohub,2013-03-10 23:28:00,
2013-03-10 13:33:00,63.9,56.8,29.96,SW,217,3.0,13.0,78,0.01,,,0.25,953.0,meteohub,2013-03-10 23:33:00,
2013-03-10 13:38:00,64.0,57.0,29.96,SSE,148,4.0,9.0,78,0.01,,,0.25,323.0,meteohub,2013-03-10 23:38:00,
2013-03-10 13:43:00,64.0,54.1,29.96,South,171,4.0,10.0,70,0.01,,,0.25,323.0,meteohub,2013-03-10 23:43:00,
2013-03-10 13:48:00,64.6,56.5,29.96,SSE,165,4.0,14.0,75,0.01,,,0.25,826.0,meteohub,2013-03-10 23:48:00,
2013-03-10 13:53:00,65.1,56.3,29.95,ESE,113,3.0,15.0,73,0.01,,,0.25,914.0,meteohub,2013-03-10 23:53:00,
2013-03-10 13:58:00,65.8,57.0,29.94,SSE,159,1.0,15.0,73,0.01,,,0.25,1005.0,meteohub,2013-03-10 23:58:00,
2013-03-10 14:03:00,66.9,54.9,29.95,West,269,8.0,12.0,65,0.01,,,0.25,1048.0,meteohub,2013-03-11 00:03:00,
2013-03-10 14:08:00,66.9,55.6,29.94,South,179,3.0,12.0,67,0.01,,,0.00,272.0,meteohub,2013-03-11 00:08:00,
2013-03-10 14:13:00,66.7,55.0,29.94,South,180,6.0,12.0,66,0.01,,,0.00,953.0,meteohub,2013-03-11 00:13:00,
2013-03-10 14:18:00,67.5,54.0,29.94,South,179,10.0,12.0,62,0.01,,,0.00,977.0,meteohub,2013-03-11 00:18:00,
2013-03-10 14:23:00,67.5,52.7,29.93,SE,138,3.0,12.0,59,0.01,,,0.00,954.0,meteohub,2013-03-11 00:23:00,
2013-03-10 14:28:00,68.0,53.1,29.93,South,182,1.0,22.0,59,0.00,,,0.00,1011.0,meteohub,2013-03-11 00:28:00,
2013-03-10 14:33:00,68.5,52.2,29.93,WSW,242,7.0,22.0,56,0.00,,,0.00,659.0,meteohub,2013-03-11 00:33:00,
2013-03-10 14:38:00,68.7,52.9,29.93,SSE,160,3.0,22.0,57,0.00,,,0.00,564.0,meteohub,2013-03-11 00:38:00,
2013-03-10 14:43:00,68.4,51.1,29.93,SE,146,12.0,14.0,54,0.00,,,0.00,919.0,meteohub,2013-03-11 00:43:00,
2013-03-10 14:49:00,68.2,52.9,29.92,SW,215,11.0,24.0,58,0.00,,,0.00,911.0,meteohub,2013-03-11 00:49:00,
2013-03-10 14:53:00,68.7,52.0,29.92,South,180,4.0,24.0,55,0.00,,,0.00,858.0,meteohub,2013-03-11 00:53:00,
2013-03-10 14:59:00,68.5,52.2,29.92,SW,221,5.0,24.0,56,0.00,,,0.00,837.0,meteohub,2013-03-11 00:59:00,
2013-03-10 15:04:00,69.3,54.9,29.92,SE,138,3.0,14.0,60,0.00,,,0.00,893.0,meteohub,2013-03-11 01:04:00,
2013-03-10 15:09:00,68.7,52.9,29.92,NW,306,3.0,14.0,57,0.00,,,0.00,742.0,meteohub,2013-03-11 01:09:00,
2013-03-10 15:14:00,68.5,53.2,29.93,WSW,241,8.0,15.0,58,0.00,,,0.00,851.0,meteohub,2013-03-11 01:14:00,
2013-03-10 15:19:00,68.4,51.6,29.93,SSW,201,6.0,17.0,55,0.00,,,0.00,360.0,meteohub,2013-03-11 01:19:00,
2013-03-10 15:24:00,68.4,51.6,29.93,SW,235,2.0,17.0,55,0.00,,,0.00,868.0,meteohub,2013-03-11 01:24:00,
2013-03-10 15:29:00,68.7,52.9,29.93,SW,222,7.0,17.0,57,0.00,,,0.00,568.0,meteohub,2013-03-11 01:29:00,
2013-03-10 15:34:00,68.2,51.4,29.93,South,171,2.0,12.0,55,0.00,,,0.00,381.0,meteohub,2013-03-11 01:34:00,
2013-03-10 15:39:00,67.1,52.3,29.93,SSE,155,4.0,12.0,59,0.00,,,0.00,294.0,meteohub,2013-03-11 01:39:00,
2013-03-10 15:44:00,66.0,51.8,29.94,South,180,0.0,12.0,60,0.00,,,0.00,269.0,meteohub,2013-03-11 01:44:00,
2013-03-10 15:49:00,65.7,51.4,29.93,WSW,242,5.0,12.0,60,0.00,,,0.00,352.0,meteohub,2013-03-11 01:49:00,
2013-03-10 15:54:00,65.8,51.6,29.93,WSW,252,3.0,12.0,60,0.00,,,0.00,455.0,meteohub,2013-03-11 01:54:00,
2013-03-10 15:59:00,65.7,51.8,29.93,SE,128,7.0,10.0,61,0.00,,,0.00,302.0,meteohub,2013-03-11 01:59:00,
2013-03-10 16:04:00,65.7,51.4,29.93,SSW,195,10.0,10.0,60,0.00,,,0.00,218.0,meteohub,2013-03-11 02:04:00,
2013-03-10 16:09:00,65.1,51.8,29.94,SSE,155,6.0,14.0,62,0.00,,,0.00,209.0,meteohub,2013-03-11 02:09:00,
2013-03-10 16:14:00,64.8,50.5,29.94,South,190,6.0,16.0,60,0.00,,,0.00,162.0,meteohub,2013-03-11 02:14:00,
2013-03-10 16:19:00,64.8,49.1,29.94,ESE,117,12.0,16.0,57,0.00,,,0.00,153.0,meteohub,2013-03-11 02:19:00,
2013-03-10 16:24:00,64.8,50.2,29.95,SSE,148,6.0,10.0,59,0.00,,,0.00,123.0,meteohub,2013-03-11 02:24:00,
2013-03-10 16:30:00,63.9,53.1,29.95,WSW,246,4.0,13.0,68,0.00,,,0.00,174.0,meteohub,2013-03-11 02:30:00,
2013-03-10 16:35:00,62.2,52.7,29.96,South,173,4.0,13.0,71,0.00,,,0.00,86.0,meteohub,2013-03-11 02:35:00,
2013-03-10 16:40:00,60.6,53.4,29.96,South,188,8.0,11.0,77,0.01,,,0.01,95.0,meteohub,2013-03-11 02:40:00,
2013-03-10 16:45:00,60.1,55.6,29.96,South,180,9.0,11.0,85,0.02,,,0.02,132.0,meteohub,2013-03-11 02:45:00,
2013-03-10 16:50:00,60.1,56.1,29.96,SW,234,1.0,12.0,87,0.02,,,0.02,90.0,meteohub,2013-03-11 02:50:00,
2013-03-10 16:55:00,59.9,55.0,29.96,South,175,3.0,17.0,84,0.02,,,0.02,104.0,meteohub,2013-03-11 02:55:00,
2013-03-10 17:00:00,60.1,55.2,29.96,South,169,5.0,17.0,84,0.02,,,0.02,104.0,meteohub,2013-03-11 03:00:00,
2013-03-10 17:05:00,59.9,53.1,29.96,SSE,158,7.0,17.0,78,0.02,,,0.02,100.0,meteohub,2013-03-11 03:05:00,
2013-03-10 17:10:00,60.3,52.7,29.96,SSW,208,0.0,10.0,76,0.02,,,0.02,93.0,meteohub,2013-03-11 03:10:00,
2013-03-10 17:15:00,60.4,53.6,29.96,West,270,3.0,11.0,78,0.02,,,0.02,86.0,meteohub,2013-03-11 03:15:00,
2013-03-10 17:20:00,60.6,53.4,29.96,SW,217,0.0,11.0,77,0.02,,,0.02,88.0,meteohub,2013-03-11 03:20:00,
2013-03-10 17:25:00,60.6,53.1,29.96,SSW,213,5.0,8.0,76,0.02,,,0.02,54.0,meteohub,2013-03-11 03:25:00,
2013-03-10 17:30:00,60.8,54.0,29.96,South,190,3.0,8.0,78,0.02,,,0.02,42.0,meteohub,2013-03-11 03:30:00,
2013-03-10 17:35:00,60.4,53.2,29.97,South,173,4.0,12.0,77,0.00,,,0.02,35.0,meteohub,2013-03-11 03:35:00,
2013-03-10 17:40:00,60.1,53.2,29.97,South,181,1.0,12.0,78,0.00,,,0.02,30.0,meteohub,2013-03-11 03:40:00,
2013-03-10 17:45:00,59.5,53.1,29.97,SE,125,6.0,12.0,79,0.00,,,0.02,25.0,meteohub,2013-03-11 03:45:00,
2013-03-10 17:50:00,59.7,52.5,29.97,South,180,2.0,8.0,77,0.01,,,0.03,19.0,meteohub,2013-03-11 03:50:00,
2013-03-10 17:55:00,59.7,53.6,29.97,South,184,3.0,8.0,80,0.01,,,0.03,19.0,meteohub,2013-03-11 03:55:00,
2013-03-10 18:00:00,59.4,53.6,29.97,SW,230,1.0,8.0,81,0.01,,,0.03,16.0,meteohub,2013-03-11 04:00:00,
2013-03-10 18:05:00,59.2,54.0,29.98,SW,234,1.0,8.0,83,0.01,,,0.03,18.0,meteohub,2013-03-11 04:05:00,
2013-03-10 18:10:00,59.0,54.9,29.98,SW,219,2.0,5.0,86,0.01,,,0.03,14.0,meteohub,2013-03-11 04:10:00,
2013-03-10 18:15:00,59.0,55.2,29.98,WSW,251,4.0,6.0,87,0.01,,,0.03,11.0,meteohub,2013-03-11 04:15:00,
2013-03-10 18:20:00,59.0,55.8,29.98,South,180,3.0,8.0,89,0.01,,,0.03,11.0,meteohub,2013-03-11 04:20:00,
2013-03-10 18:25:00,58.8,55.0,29.98,South,182,1.0,8.0,87,0.01,,,0.03,5.0,meteohub,2013-03-11 04:25:00,
2013-03-10 18:30:00,58.8,55.2,29.98,SW,233,1.0,8.0,88,0.01,,,0.03,0.0,meteohub,2013-03-11 04:30:00,
2013-03-10 18:35:00,58.8,55.9,29.98,SW,219,3.0,6.0,90,0.01,,,0.03,0.0,meteohub,2013-03-11 04:35:00,
2013-03-10 18:40:00,58.8,55.6,29.98,ESE,108,5.0,8.0,89,0.01,,,0.03,0.0,meteohub,2013-03-11 04:40:00,
2013-03-10 18:45:00,58.8,55.6,29.98,SSW,213,0.0,8.0,89,0.00,,,0.03,0.0,meteohub,2013-03-11 04:45:00,
2013-03-10 18:50:00,58.8,55.6,29.98,SSE,159,4.0,8.0,89,0.00,,,0.03,0.0,meteohub,2013-03-11 04:50:00,
2013-03-10 18:55:00,58.8,55.6,29.99,SSW,208,3.0,8.0,89,0.00,,,0.03,0.0,meteohub,2013-03-11 04:55:00,
2013-03-10 19:00:00,58.8,55.0,29.99,SSE,167,2.0,8.0,87,0.00,,,0.03,0.0,meteohub,2013-03-11 05:00:00,
2013-03-10 19:05:00,59.2,55.0,29.99,SSW,205,1.0,8.0,86,0.00,,,0.03,0.0,meteohub,2013-03-11 05:05:00,
2013-03-10 19:10:00,59.2,54.7,29.99,South,185,0.0,10.0,85,0.00,,,0.03,0.0,meteohub,2013-03-11 05:10:00,
2013-03-10 19:15:00,59.4,54.5,30.00,South,182,5.0,10.0,84,0.00,,,0.03,0.0,meteohub,2013-03-11 05:15:00,
2013-03-10 19:20:00,59.5,54.7,30.00,South,180,3.0,10.0,84,0.00,,,0.03,0.0,meteohub,2013-03-11 05:20:00,
2013-03-10 19:25:00,59.5,54.3,30.00,South,175,2.0,9.0,83,0.00,,,0.03,0.0,meteohub,2013-03-11 05:25:00,
2013-03-10 19:30:00,59.5,55.0,30.00,SW,227,4.0,8.0,85,0.00,,,0.03,0.0,meteohub,2013-03-11 05:30:00,
2013-03-10 19:35:00,59.2,55.4,30.01,SSW,209,1.0,7.0,87,0.00,,,0.03,0.0,meteohub,2013-03-11 05:35:00,
2013-03-10 19:40:00,58.8,54.7,30.01,South,186,0.0,7.0,86,0.00,,,0.03,0.0,meteohub,2013-03-11 05:40:00,
2013-03-10 19:45:00,58.8,55.2,30.01,SW,234,3.0,7.0,88,0.00,,,0.03,0.0,meteohub,2013-03-11 05:45:00,
2013-03-10 19:50:00,58.8,55.2,30.01,SSE,162,1.0,7.0,88,0.00,,,0.03,0.0,meteohub,2013-03-11 05:50:00,
2013-03-10 19:55:00,58.6,54.5,30.01,South,184,3.0,7.0,86,0.00,,,0.03,0.0,meteohub,2013-03-11 05:55:00,
2013-03-10 20:00:00,58.8,54.0,30.02,SW,221,0.0,7.0,84,0.00,,,0.03,0.0,meteohub,2013-03-11 06:00:00,
2013-03-10 20:05:00,58.8,55.2,30.02,SSW,195,0.0,7.0,88,0.01,,,0.04,0.0,meteohub,2013-03-11 06:05:00,
2013-03-10 20:10:00,58.5,54.7,30.03,SSW,208,1.0,7.0,87,0.01,,,0.04,0.0,meteohub,2013-03-11 06:10:00,
2013-03-10 20:15:00,58.3,54.7,30.03,SSW,210,3.0,5.0,88,0.01,,,0.04,0.0,meteohub,2013-03-11 06:15:00,
2013-03-10 20:20:00,58.3,55.0,30.03,SW,233,1.0,8.0,89,0.01,,,0.04,0.0,meteohub,2013-03-11 06:20:00,
2013-03-10 20:25:00,58.3,55.0,30.03,South,173,0.0,8.0,89,0.01,,,0.04,0.0,meteohub,2013-03-11 06:25:00,
2013-03-10 20:30:00,58.3,55.4,30.03,South,188,0.0,8.0,90,0.01,,,0.04,0.0,meteohub,2013-03-11 06:30:00,
2013-03-10 20:35:00,58.3,55.6,30.04,WSW,246,1.0,8.0,91,0.01,,,0.04,0.0,meteohub,2013-03-11 06:35:00,
2013-03-10 20:41:00,58.3,56.3,30.03,SW,235,2.0,4.0,93,0.01,,,0.04,0.0,meteohub,2013-03-11 06:41:00,
2013-03-10 20:46:00,58.3,56.8,30.04,WSW,237,1.0,5.0,95,0.02,,,0.05,0.0,meteohub,2013-03-11 06:46:00,
2013-03-10 20:51:00,58.5,57.4,30.04,WSW,239,2.0,6.0,96,0.02,,,0.05,0.0,meteohub,2013-03-11 06:51:00,
2013-03-10 20:56:00,58.3,57.2,30.04,North,0,2.0,6.0,96,0.02,,,0.05,0.0,meteohub,2013-03-11 06:56:00,
2013-03-10 21:01:00,58.1,57.2,30.04,SW,222,5.0,6.0,97,0.02,,,0.05,0.0,meteohub,2013-03-11 07:01:00,
2013-03-10 21:06:00,57.6,56.1,30.04,South,186,2.0,7.0,95,0.01,,,0.05,0.0,meteohub,2013-03-11 07:06:00,
2013-03-10 21:11:00,57.2,55.4,30.04,SW,231,0.0,7.0,94,0.01,,,0.05,0.0,meteohub,2013-03-11 07:11:00,
2013-03-10 21:16:00,57.4,55.4,30.05,SSE,167,4.0,8.0,93,0.01,,,0.05,0.0,meteohub,2013-03-11 07:16:00,
2013-03-10 21:21:00,57.6,55.6,30.05,SW,227,3.0,8.0,93,0.01,,,0.05,0.0,meteohub,2013-03-11 07:21:00,
2013-03-10 21:26:00,57.6,55.2,30.05,ESE,119,1.0,8.0,92,0.01,,,0.05,0.0,meteohub,2013-03-11 07:26:00,
2013-03-10 21:32:00,57.9,54.7,30.05,SSE,161,6.0,8.0,89,0.01,,,0.05,0.0,meteohub,2013-03-11 07:32:00,
2013-03-10 21:37:00,58.3,55.0,30.05,SW,232,0.0,8.0,89,0.01,,,0.05,0.0,meteohub,2013-03-11 07:37:00,
2013-03-10 21:42:00,58.3,54.7,30.05,SW,229,3.0,8.0,88,0.01,,,0.05,0.0,meteohub,2013-03-11 07:42:00,
2013-03-10 21:47:00,58.5,54.7,30.05,SW,232,4.0,13.0,87,0.00,,,0.05,0.0,meteohub,2013-03-11 07:47:00,
2013-03-10 21:52:00,58.6,54.9,30.05,SW,219,4.0,13.0,87,0.00,,,0.05,0.0,meteohub,2013-03-11 07:52:00,
2013-03-10 21:57:00,58.6,54.5,30.05,SSW,207,5.0,13.0,86,0.00,,,0.05,0.0,meteohub,2013-03-11 07:57:00,
2013-03-10 22:02:00,58.6,53.2,30.05,SW,221,5.0,12.0,82,0.00,,,0.05,0.0,meteohub,2013-03-11 08:02:00,
2013-03-10 22:07:00,59.0,53.2,30.05,West,275,3.0,12.0,81,0.00,,,0.05,0.0,meteohub,2013-03-11 08:07:00,
2013-03-10 22:12:00,59.2,52.7,30.05,SSW,203,7.0,11.0,79,0.00,,,0.05,0.0,meteohub,2013-03-11 08:12:00,
2013-03-10 22:17:00,59.2,52.0,30.05,SSE,158,3.0,11.0,77,0.00,,,0.05,0.0,meteohub,2013-03-11 08:17:00,
2013-03-10 22:22:00,59.5,50.9,30.05,SW,228,2.0,11.0,73,0.00,,,0.05,0.0,meteohub,2013-03-11 08:22:00,
2013-03-10 22:27:00,59.4,51.8,30.05,WSW,253,0.0,9.0,76,0.00,,,0.05,0.0,meteohub,2013-03-11 08:27:00,
2013-03-10 22:32:00,58.8,51.6,30.06,SSW,203,0.0,7.0,77,0.00,,,0.05,0.0,meteohub,2013-03-11 08:32:00,
2013-03-10 22:37:00,58.5,51.6,30.06,SSE,162,0.0,5.0,78,0.00,,,0.05,0.0,meteohub,2013-03-11 08:37:00,
2013-03-10 22:42:00,58.3,51.8,30.06,South,185,0.0,5.0,79,0.00,,,0.05,0.0,meteohub,2013-03-11 08:42:00,
2013-03-10 22:47:00,57.9,51.4,30.06,SSW,211,2.0,5.0,79,0.00,,,0.05,0.0,meteohub,2013-03-11 08:47:00,
2013-03-10 22:52:00,57.9,52.2,30.06,SW,217,0.0,4.0,81,0.00,,,0.05,0.0,meteohub,2013-03-11 08:52:00,
2013-03-10 22:57:00,57.6,52.5,30.06,SW,216,0.0,5.0,83,0.00,,,0.05,0.0,meteohub,2013-03-11 08:57:00,
2013-03-10 23:02:00,57.2,52.2,30.06,SW,227,0.0,5.0,83,0.00,,,0.05,0.0,meteohub,2013-03-11 09:02:00,
2013-03-10 23:07:00,57.0,52.9,30.06,SW,227,0.0,4.0,86,0.00,,,0.05,0.0,meteohub,2013-03-11 09:07:00,
2013-03-10 23:12:00,56.8,52.7,30.06,SW,227,0.0,2.0,86,0.00,,,0.05,0.0,meteohub,2013-03-11 09:12:00,
2013-03-10 23:17:00,56.5,52.9,30.06,SW,227,0.0,2.0,88,0.00,,,0.05,0.0,meteohub,2013-03-11 09:17:00,
2013-03-10 23:22:00,56.3,53.4,30.06,SW,227,0.0,1.0,90,0.00,,,0.05,0.0,meteohub,2013-03-11 09:22:00,
2013-03-10 23:27:00,56.1,52.3,30.06,SW,223,0.0,4.0,87,0.00,,,0.05,0.0,meteohub,2013-03-11 09:27:00,
2013-03-10 23:32:00,57.0,52.5,30.06,SSW,205,0.0,6.0,85,0.00,,,0.05,0.0,meteohub,2013-03-11 09:32:00,
2013-03-10 23:38:00,57.6,52.7,30.06,SSW,211,1.0,7.0,84,0.00,,,0.05,0.0,meteohub,2013-03-11 09:38:00,
2013-03-10 23:43:00,57.7,52.9,30.06,SSW,196,1.0,7.0,84,0.00,,,0.05,0.0,meteohub,2013-03-11 09:43:00,
2013-03-10 23:48:00,58.1,52.3,30.06,SW,228,1.0,9.0,81,0.00,,,0.05,0.0,meteohub,2013-03-11 09:48:00,
2013-03-10 23:53:00,58.3,52.9,30.06,SW,227,3.0,9.0,82,0.00,,,0.05,0.0,meteohub,2013-03-11 09:53:00,
2013-03-10 23:58:00,58.3,53.8,30.06,WSW,248,3.0,9.0,85,0.00,,,0.05,0.0,meteohub,2013-03-11 09:58:00,